createdAt,value
2019-02-23T00:02:08.921Z,20.13
2019-02-23T00:04:35.570Z,18.27
2019-02-23T00:07:01.988Z,18.67
2019-02-23T00:09:28.260Z,19.90
2019-02-23T00:11:54.655Z,18.67
2019-02-23T00:14:20.959Z,19.13
2019-02-23T00:16:47.411Z,18.33
2019-02-23T00:19:24.185Z,18.20
2019-02-23T00:21:41.812Z,17.43
2019-02-23T00:27:30.703Z,17.67
2019-02-23T00:29:57.021Z,17.87
2019-02-23T00:32:23.672Z,17.60
2019-02-23T00:34:50.090Z,18.77
2019-02-23T00:37:16.425Z,19.90
2019-02-23T00:39:42.852Z,18.30
2019-02-23T00:42:09.184Z,18.87
2019-02-23T00:44:35.836Z,17.80
2019-02-23T00:47:02.135Z,19.57
2019-02-23T00:49:35.883Z,19.67
2019-02-23T00:51:56.631Z,18.00
2019-02-23T00:54:22.985Z,19.20
2019-02-23T00:56:49.826Z,18.87
2019-02-23T00:59:16.103Z,17.97
2019-02-23T01:01:42.381Z,19.40
2019-02-23T01:04:08.715Z,18.10
2019-02-23T01:06:35.046Z,18.40
2019-02-23T01:09:01.288Z,18.57
2019-02-23T01:11:27.680Z,19.50
2019-02-23T01:13:53.984Z,18.37
2019-02-23T01:16:20.367Z,17.10
2019-02-23T01:18:46.677Z,18.70
2019-02-23T01:21:13.028Z,18.30
2019-02-23T01:23:39.281Z,18.37
2019-02-23T01:26:05.573Z,17.57
2019-02-23T01:28:31.917Z,17.63
2019-02-23T01:30:58.163Z,17.20
2019-02-23T01:33:24.682Z,17.70
2019-02-23T01:35:51.010Z,18.20
2019-02-23T01:38:17.274Z,18.43
2019-02-23T01:40:43.676Z,17.90
2019-02-23T01:43:09.956Z,18.73
2019-02-23T01:45:42.375Z,17.47
2019-02-23T01:48:04.610Z,16.50
2019-02-23T01:50:30.937Z,17.30
2019-02-23T01:52:57.255Z,18.73
2019-02-23T01:55:23.703Z,19.10
2019-02-23T01:57:49.955Z,17.57
2019-02-23T02:00:16.566Z,19.20
2019-02-23T02:02:43.641Z,18.63
2019-02-23T02:05:10.560Z,18.33
2019-02-23T02:07:36.955Z,17.80
2019-02-23T02:10:06.665Z,19.50
2019-02-23T02:12:32.958Z,18.10
2019-02-23T02:14:59.261Z,17.23
2019-02-23T02:17:25.540Z,17.43
2019-02-23T02:19:51.918Z,18.63
2019-02-23T02:22:18.249Z,18.13
2019-02-23T02:24:44.537Z,18.37
2019-02-23T02:27:10.908Z,17.87
2019-02-23T02:29:37.239Z,17.67
2019-02-23T02:32:03.532Z,18.27
2019-02-23T02:34:29.920Z,17.63
2019-02-23T02:36:57.305Z,17.57
2019-02-23T02:39:23.808Z,17.63
2019-02-23T02:41:50.634Z,19.00
2019-02-23T02:44:17.063Z,17.20
2019-02-23T02:46:43.396Z,18.13
2019-02-23T02:49:09.723Z,18.00
2019-02-23T02:51:36.150Z,17.47
2019-02-23T02:54:02.590Z,18.67
2019-02-23T02:56:28.920Z,16.50
2019-02-23T02:58:55.251Z,16.77
2019-02-23T03:01:21.530Z,16.40
2019-02-23T03:03:47.808Z,17.03
2019-02-23T03:06:14.139Z,15.83
2019-02-23T03:08:40.675Z,16.43
2019-02-23T03:11:07.210Z,16.37
2019-02-23T03:13:34.153Z,16.30
2019-02-23T03:16:00.488Z,14.77
2019-02-23T03:18:26.814Z,15.57
2019-02-23T03:20:53.145Z,15.07
2019-02-23T03:23:19.578Z,15.50
2019-02-23T03:25:45.818Z,16.57
2019-02-23T03:28:12.136Z,15.67
2019-02-23T03:30:38.821Z,16.10
2019-02-23T03:33:05.266Z,15.00
2019-02-23T03:35:31.639Z,16.13
2019-02-23T03:37:57.926Z,17.40
2019-02-23T03:40:24.298Z,16.03
2019-02-23T03:42:50.638Z,15.80
2019-02-23T03:45:17.295Z,16.90
2019-02-23T03:47:43.589Z,16.60
2019-02-23T03:50:10.029Z,16.43
2019-02-23T03:52:36.374Z,17.33
2019-02-23T03:55:03.314Z,16.97
2019-02-23T03:57:29.636Z,17.10
2019-02-23T03:59:56.388Z,17.23
2019-02-23T04:02:24.506Z,15.63
2019-02-23T04:04:50.879Z,18.53
2019-02-23T04:07:17.213Z,16.07
2019-02-23T04:09:43.540Z,16.53
2019-02-23T04:12:09.810Z,16.80
2019-02-23T04:14:36.305Z,16.43
2019-02-23T04:17:02.535Z,15.57
2019-02-23T04:19:28.787Z,16.70
2019-02-23T04:21:55.065Z,15.47
2019-02-23T04:24:21.842Z,15.87
2019-02-23T04:26:48.141Z,15.00
2019-02-23T04:29:14.440Z,16.63
2019-02-23T04:31:40.819Z,15.27
2019-02-23T04:34:07.372Z,15.73
2019-02-23T04:36:33.657Z,16.70
2019-02-23T04:38:59.974Z,16.87
2019-02-23T04:41:26.299Z,16.83
2019-02-23T04:43:52.675Z,15.83
2019-02-23T04:46:19.005Z,15.83
2019-02-23T04:48:45.335Z,14.53
2019-02-23T04:51:14.575Z,16.33
2019-02-23T04:53:40.024Z,15.20
2019-02-23T04:56:06.373Z,15.20
2019-02-23T04:58:32.806Z,15.33
2019-02-23T05:00:59.139Z,16.10
2019-02-23T05:03:25.399Z,15.20
2019-02-23T05:05:51.798Z,16.07
2019-02-23T05:08:18.010Z,15.40
2019-02-23T05:10:44.355Z,14.90
2019-02-23T05:13:10.605Z,16.60
2019-02-23T05:15:36.910Z,15.13
2019-02-23T05:18:03.244Z,13.80
2019-02-23T05:20:29.524Z,16.03
2019-02-23T05:22:55.904Z,16.97
2019-02-23T05:25:22.558Z,15.97
2019-02-23T05:27:48.877Z,16.07
2019-02-23T05:30:15.150Z,15.57
2019-02-23T05:32:41.640Z,16.03
2019-02-23T05:35:12.265Z,17.83
2019-02-23T05:37:38.484Z,15.73
2019-02-23T05:40:08.001Z,14.73
2019-02-23T05:42:34.418Z,14.70
2019-02-23T05:45:00.762Z,16.27
2019-02-23T05:47:27.094Z,15.40
2019-02-23T05:49:55.287Z,16.37
2019-02-23T05:52:21.475Z,16.47
2019-02-23T05:54:48.163Z,15.80
2019-02-23T05:57:14.564Z,15.13
2019-02-23T05:59:41.003Z,15.40
2019-02-23T06:02:07.428Z,14.37
2019-02-23T06:04:34.082Z,15.53
2019-02-23T06:07:00.384Z,14.80
2019-02-23T06:09:26.831Z,15.97
2019-02-23T06:11:53.158Z,16.10
2019-02-23T06:14:19.395Z,15.83
2019-02-23T06:17:05.627Z,16.67
2019-02-23T06:19:32.021Z,15.03
2019-02-23T06:21:58.446Z,16.00
2019-02-23T06:24:24.781Z,15.53
2019-02-23T06:26:51.429Z,15.13
2019-02-23T06:29:17.747Z,16.20
2019-02-23T06:31:44.385Z,16.43
2019-02-23T06:34:16.281Z,15.23
2019-02-23T06:36:38.753Z,15.60
2019-02-23T06:39:05.091Z,16.47
2019-02-23T06:41:31.686Z,16.20
2019-02-23T06:43:58.087Z,15.47
2019-02-23T06:46:24.414Z,17.70
2019-02-23T06:48:50.745Z,16.93
2019-02-23T06:51:17.102Z,15.90
2019-02-23T06:53:43.404Z,16.03
2019-02-23T06:56:09.689Z,16.83
2019-02-23T06:58:36.020Z,16.00
2019-02-23T07:01:02.397Z,15.47
2019-02-23T07:03:28.949Z,15.00
2019-02-23T07:05:55.269Z,15.63
2019-02-23T07:08:22.000Z,14.60
2019-02-23T07:10:48.660Z,15.57
2019-02-23T07:13:15.070Z,15.70
2019-02-23T07:15:41.281Z,15.87
2019-02-23T07:18:07.560Z,13.83
2019-02-23T07:20:43.814Z,17.03
2019-02-23T07:23:01.952Z,15.77
2019-02-23T07:25:28.259Z,15.70
2019-02-23T07:27:54.590Z,16.10
2019-02-23T07:30:21.020Z,15.40
2019-02-23T07:32:47.454Z,14.40
2019-02-23T07:35:13.784Z,15.10
2019-02-23T07:37:40.017Z,15.97
2019-02-23T07:40:13.791Z,16.50
2019-02-23T07:42:40.372Z,15.53
2019-02-23T07:45:08.423Z,16.93
2019-02-23T07:47:34.672Z,16.33
2019-02-23T07:50:01.186Z,17.47
2019-02-23T07:52:27.403Z,15.60
2019-02-23T07:54:53.950Z,15.30
2019-02-23T07:57:20.255Z,16.27
2019-02-23T07:59:46.540Z,15.53
2019-02-23T08:02:12.941Z,15.87
2019-02-23T08:04:39.245Z,16.10
2019-02-23T08:07:05.651Z,15.30
2019-02-23T08:09:31.979Z,15.97
2019-02-23T08:11:58.326Z,16.27
2019-02-23T08:14:24.912Z,16.13
2019-02-23T08:16:51.274Z,15.67
2019-02-23T08:19:17.666Z,16.77
2019-02-23T08:21:43.954Z,16.73
2019-02-23T08:24:10.324Z,16.73
2019-02-23T08:26:36.761Z,16.53
2019-02-23T08:29:03.088Z,17.17
2019-02-23T08:31:29.671Z,16.13
2019-02-23T08:33:56.055Z,16.57
2019-02-23T08:36:23.760Z,16.87
2019-02-23T08:38:50.351Z,17.30
2019-02-23T08:41:17.648Z,18.00
2019-02-23T08:43:43.946Z,18.13
2019-02-23T08:46:10.591Z,18.20
2019-02-23T08:48:37.010Z,17.47
2019-02-23T08:51:03.334Z,18.53
2019-02-23T08:53:29.664Z,18.20
2019-02-23T08:55:55.938Z,19.10
2019-02-23T08:58:22.543Z,18.53
2019-02-23T09:00:48.860Z,19.30
2019-02-23T09:03:15.293Z,20.37
2019-02-23T09:05:41.741Z,20.20
2019-02-23T09:08:08.482Z,19.80
2019-02-23T09:10:34.897Z,20.93
2019-02-23T09:13:01.552Z,21.87
2019-02-23T09:15:27.865Z,21.03
2019-02-23T09:17:54.196Z,20.83
2019-02-23T09:20:28.753Z,21.20
2019-02-23T09:22:59.493Z,21.40
2019-02-23T09:25:16.770Z,22.00
2019-02-23T09:27:43.329Z,23.87
2019-02-23T09:30:11.251Z,23.27
2019-02-23T09:32:37.610Z,22.57
2019-02-23T09:35:04.588Z,21.27
2019-02-23T09:37:30.987Z,22.50
2019-02-23T09:39:57.312Z,21.37
2019-02-23T09:42:23.643Z,22.03
2019-02-23T09:44:49.974Z,20.77
2019-02-23T09:47:16.313Z,20.03
2019-02-23T09:49:44.503Z,19.90
2019-02-23T09:52:10.909Z,20.03
2019-02-23T09:54:37.297Z,18.13
2019-02-23T09:57:03.678Z,18.80
2019-02-23T09:59:30.105Z,19.13
2019-02-23T10:01:56.337Z,18.93
2019-02-23T10:04:22.766Z,17.90
2019-02-23T10:06:48.996Z,17.57
2019-02-23T10:09:15.394Z,15.47
2019-02-23T10:11:42.082Z,16.93
2019-02-23T10:14:08.498Z,16.60
2019-02-23T10:16:34.826Z,15.83
2019-02-23T10:19:03.029Z,15.77
2019-02-23T10:21:29.195Z,15.30
2019-02-23T10:23:55.877Z,15.67
2019-02-23T10:26:22.206Z,14.53
2019-02-23T10:28:48.526Z,15.33
2019-02-23T10:31:14.858Z,14.83
2019-02-23T10:33:47.451Z,13.97
2019-02-23T10:36:09.180Z,14.23
2019-02-23T10:38:35.588Z,13.40
2019-02-23T10:41:01.918Z,14.53
2019-02-23T10:43:28.207Z,14.13
2019-02-23T10:45:54.831Z,14.63
2019-02-23T10:48:21.219Z,14.07
2019-02-23T10:50:49.228Z,14.03
2019-02-23T10:53:15.620Z,13.27
2019-02-23T10:55:41.913Z,13.63
2019-02-23T10:58:08.603Z,14.10
2019-02-23T11:00:35.096Z,14.60
2019-02-23T11:03:01.452Z,13.47
2019-02-23T11:05:27.693Z,14.33
2019-02-23T11:07:54.143Z,13.47
2019-02-23T11:10:21.887Z,12.90
2019-02-23T11:12:48.412Z,14.23
2019-02-23T11:15:16.424Z,14.23
2019-02-23T11:17:42.811Z,13.20
2019-02-23T11:20:09.703Z,12.70
2019-02-23T11:22:36.211Z,12.33
2019-02-23T11:25:04.514Z,13.50
2019-02-23T11:27:30.900Z,11.53
2019-02-23T11:29:57.228Z,12.47
2019-02-23T11:32:23.889Z,13.23
2019-02-23T11:34:50.244Z,12.17
2019-02-23T11:37:16.542Z,12.30
2019-02-23T11:39:42.856Z,12.47
2019-02-23T11:42:09.186Z,11.10
2019-02-23T11:44:35.937Z,12.87
2019-02-23T11:47:02.155Z,12.77
2019-02-23T11:49:28.484Z,12.67
2019-02-23T11:51:55.125Z,11.60
2019-02-23T11:54:21.773Z,11.50
2019-02-23T11:56:48.058Z,12.17
2019-02-23T11:59:14.419Z,11.30
2019-02-23T12:01:40.662Z,12.40
2019-02-23T12:04:06.884Z,11.60
2019-02-23T12:06:33.310Z,12.03
2019-02-23T12:08:59.590Z,12.33
2019-02-23T12:11:25.982Z,11.67
2019-02-23T12:13:52.286Z,11.60
2019-02-23T12:16:18.652Z,11.17
2019-02-23T12:18:44.890Z,11.57
2019-02-23T12:21:11.198Z,11.20
2019-02-23T12:23:37.471Z,12.30
2019-02-23T12:26:03.770Z,11.90
2019-02-23T12:28:30.077Z,12.47
2019-02-23T12:30:56.367Z,11.27
2019-02-23T12:33:22.738Z,11.07
2019-02-23T12:35:48.944Z,10.93
2019-02-23T12:38:15.297Z,11.27
2019-02-23T12:40:41.548Z,11.83
2019-02-23T12:43:07.957Z,11.23
2019-02-23T12:45:35.210Z,10.73
2019-02-23T12:48:01.554Z,10.83
2019-02-23T12:50:27.837Z,10.63
2019-02-23T12:52:54.200Z,10.53
2019-02-23T12:55:20.531Z,10.67
2019-02-23T12:57:46.759Z,10.10
2019-02-23T13:00:15.035Z,11.23
2019-02-23T13:02:41.351Z,10.07
2019-02-23T13:05:08.698Z,9.60
2019-02-23T13:07:34.963Z,9.20
2019-02-23T13:10:01.232Z,10.80
2019-02-23T13:12:47.270Z,10.47
2019-02-23T13:15:17.182Z,9.43
2019-02-23T13:18:05.786Z,10.10
2019-02-23T13:20:52.809Z,9.80
2019-02-23T13:23:42.656Z,9.83
2019-02-23T13:26:33.418Z,10.67
2019-02-23T13:29:17.056Z,9.80
2019-02-23T13:32:08.387Z,9.87
2019-02-23T13:34:44.322Z,9.60
2019-02-23T13:37:42.218Z,9.50
2019-02-23T13:40:15.192Z,9.70
2019-02-23T13:42:52.761Z,9.20
2019-02-23T13:45:31.411Z,10.27
2019-02-23T13:48:07.437Z,9.67
2019-02-23T13:50:37.682Z,9.70
2019-02-23T13:53:26.129Z,9.93
2019-02-23T13:56:08.240Z,9.50
2019-02-23T13:58:47.680Z,9.23
2019-02-23T14:01:25.211Z,9.97
2019-02-23T14:04:07.367Z,8.73
2019-02-23T14:06:46.502Z,8.90
2019-02-23T14:09:48.980Z,8.67
2019-02-23T14:12:19.079Z,9.07
2019-02-23T14:15:02.059Z,8.63
2019-02-23T14:17:53.028Z,8.47
2019-02-23T14:20:23.146Z,8.80
2019-02-23T14:23:05.472Z,9.00
2019-02-23T14:25:52.257Z,9.20
2019-02-23T14:28:22.336Z,9.20
2019-02-23T14:31:01.419Z,7.80
2019-02-23T14:33:34.493Z,8.60
2019-02-23T14:36:21.530Z,8.67
2019-02-23T14:39:14.857Z,8.33
2019-02-23T14:42:04.576Z,7.57
2019-02-23T14:45:00.841Z,7.90
2019-02-23T14:47:46.275Z,7.13
2019-02-23T14:50:19.346Z,7.47
2019-02-23T14:53:05.866Z,7.97
2019-02-23T14:55:52.904Z,8.17
2019-02-23T14:58:32.308Z,8.13
2019-02-23T15:01:20.801Z,7.33
2019-02-23T15:04:06.033Z,8.70
2019-02-23T15:06:57.676Z,8.53
2019-02-23T15:09:27.837Z,8.63
2019-02-23T15:12:14.791Z,8.50
2019-02-23T15:15:08.257Z,8.20
2019-02-23T15:17:53.399Z,7.53
2019-02-23T15:20:35.528Z,7.53
2019-02-23T15:23:08.514Z,7.80
2019-02-23T15:25:38.630Z,6.90
2019-02-23T15:28:35.626Z,7.23
2019-02-23T15:31:13.958Z,7.43
2019-02-23T15:33:53.479Z,7.10
2019-02-23T15:36:29.553Z,7.33
2019-02-23T15:39:16.480Z,6.57
2019-02-23T15:42:03.691Z,7.07
2019-02-23T15:44:59.332Z,6.70
2019-02-23T15:47:41.503Z,7.27
2019-02-23T15:50:12.995Z,6.93
2019-02-23T15:52:38.005Z,6.97
2019-02-23T15:55:05.387Z,7.57
2019-02-23T15:57:31.818Z,7.43
2019-02-23T15:59:58.237Z,6.57
2019-02-23T16:02:24.653Z,6.93
2019-02-23T16:04:52.789Z,6.97
2019-02-23T16:07:19.021Z,6.63
2019-02-23T16:09:45.386Z,7.13
2019-02-23T16:12:11.734Z,6.43
2019-02-23T16:14:38.037Z,6.57
2019-02-23T16:17:04.323Z,6.83
2019-02-23T16:19:30.627Z,7.03
2019-02-23T16:21:56.933Z,6.43
2019-02-23T16:24:23.243Z,6.83
2019-02-23T16:26:51.460Z,6.83
2019-02-23T16:29:17.980Z,7.60
2019-02-23T16:31:44.284Z,7.50
2019-02-23T16:34:10.939Z,7.17
2019-02-23T16:36:37.498Z,7.03
2019-02-23T16:39:07.603Z,7.03
2019-02-23T16:41:33.923Z,6.83
2019-02-23T16:44:00.573Z,7.07
2019-02-23T16:46:26.993Z,7.37
2019-02-23T16:48:55.210Z,7.53
2019-02-23T16:51:21.370Z,7.53
2019-02-23T16:53:48.968Z,6.97
2019-02-23T16:56:15.590Z,6.87
2019-02-23T16:58:41.940Z,7.40
2019-02-23T17:01:08.161Z,8.10
2019-02-23T17:03:34.564Z,8.13
2019-02-23T17:06:01.013Z,7.17
2019-02-23T17:08:27.284Z,7.33
2019-02-23T17:10:53.674Z,6.97
2019-02-23T17:13:19.929Z,7.73
2019-02-23T17:15:46.336Z,8.63
2019-02-23T17:18:12.664Z,8.17
2019-02-23T17:20:38.998Z,8.77
2019-02-23T17:23:05.428Z,9.63
2019-02-23T17:25:32.091Z,11.17
2019-02-23T17:27:58.498Z,10.23
2019-02-23T17:30:24.828Z,9.57
2019-02-23T17:32:51.161Z,8.03
2019-02-23T17:35:17.490Z,7.27
2019-02-23T17:37:44.154Z,7.30
2019-02-23T17:40:10.560Z,6.87
2019-02-23T17:42:36.850Z,7.20
2019-02-23T17:45:06.552Z,7.07
2019-02-23T17:47:33.142Z,7.90
2019-02-23T17:49:59.462Z,7.27
2019-02-23T17:52:25.896Z,7.67
2019-02-23T17:54:52.547Z,7.00
2019-02-23T17:57:18.857Z,7.60
2019-02-23T17:59:45.193Z,7.97
2019-02-23T18:02:13.197Z,7.70
2019-02-23T18:04:39.492Z,7.93
2019-02-23T18:07:05.933Z,7.80
2019-02-23T18:09:32.261Z,7.80
2019-02-23T18:11:58.501Z,7.17
2019-02-23T18:14:24.810Z,7.23
2019-02-23T18:16:51.145Z,6.83
2019-02-23T18:19:17.473Z,7.43
2019-02-23T18:21:44.023Z,7.17
2019-02-23T18:24:10.351Z,8.50
2019-02-23T18:26:36.634Z,7.47
2019-02-23T18:29:03.049Z,7.70
2019-02-23T18:31:29.294Z,7.03
2019-02-23T18:33:55.588Z,7.70
2019-02-23T18:36:21.795Z,7.70
2019-02-23T18:38:48.136Z,7.40
2019-02-23T18:41:14.410Z,8.63
2019-02-23T18:43:40.707Z,7.90
2019-02-23T18:46:07.035Z,8.20
2019-02-23T18:48:33.306Z,8.73
2019-02-23T18:50:59.670Z,7.90
2019-02-23T18:53:25.958Z,8.67
2019-02-23T18:55:52.249Z,8.80
2019-02-23T18:58:20.264Z,8.87
2019-02-23T19:00:46.610Z,8.73
2019-02-23T19:03:12.899Z,9.43
2019-02-23T19:05:39.589Z,9.53
2019-02-23T19:08:05.964Z,9.67
2019-02-23T19:10:32.398Z,9.03
2019-02-23T19:12:58.698Z,9.43
2019-02-23T19:15:25.059Z,9.40
2019-02-23T19:17:51.314Z,8.10
2019-02-23T19:20:17.588Z,9.80
2019-02-23T19:22:43.945Z,8.03
2019-02-23T19:25:10.274Z,8.63
2019-02-23T19:27:36.589Z,8.43
2019-02-23T19:30:05.674Z,8.57
2019-02-23T19:32:32.440Z,9.43
2019-02-23T19:34:58.642Z,9.37
2019-02-23T19:37:24.999Z,8.83
2019-02-23T19:39:51.226Z,9.33
2019-02-23T19:42:17.506Z,9.50
2019-02-23T19:44:43.828Z,9.43
2019-02-23T19:47:10.319Z,9.50
2019-02-23T19:49:36.650Z,9.20
2019-02-23T19:52:02.901Z,8.97
2019-02-23T19:54:29.200Z,8.77
2019-02-23T19:56:55.511Z,9.43
2019-02-23T19:59:21.870Z,8.53
2019-02-23T20:01:48.098Z,8.30
2019-02-23T20:04:14.329Z,9.83
2019-02-23T20:06:40.655Z,8.20
2019-02-23T20:09:06.915Z,8.57
2019-02-23T20:11:33.232Z,9.30
2019-02-23T20:14:01.269Z,8.00
2019-02-23T20:16:27.614Z,8.57
2019-02-23T20:18:54.047Z,7.70
2019-02-23T20:21:20.382Z,8.23
2019-02-23T20:23:47.990Z,7.83
2019-02-23T20:26:14.352Z,8.30
2019-02-23T20:28:40.644Z,8.20
2019-02-23T20:31:06.947Z,8.33
2019-02-23T20:33:33.360Z,7.87
2019-02-23T20:36:00.015Z,7.93
2019-02-23T20:38:26.313Z,8.10
2019-02-23T20:40:52.600Z,8.57
2019-02-23T20:43:18.904Z,8.10
2019-02-23T20:45:45.220Z,7.43
2019-02-23T20:48:11.607Z,7.00
2019-02-23T20:50:37.902Z,7.50
2019-02-23T20:53:05.890Z,7.57
2019-02-23T20:55:32.102Z,7.73
2019-02-23T20:57:58.415Z,8.10
2019-02-23T21:00:24.704Z,7.67
2019-02-23T21:02:51.101Z,8.13
2019-02-23T21:05:17.497Z,8.07
2019-02-23T21:07:43.795Z,8.30
2019-02-23T21:10:10.158Z,7.77
2019-02-23T21:12:36.491Z,8.07
2019-02-23T21:15:04.893Z,7.83
2019-02-23T21:17:31.413Z,8.20
2019-02-23T21:19:57.732Z,7.63
2019-02-23T21:22:24.063Z,7.93
2019-02-23T21:24:50.393Z,7.87
2019-02-23T21:27:16.637Z,8.53
2019-02-23T21:29:42.958Z,8.47
2019-02-23T21:32:09.292Z,8.80
2019-02-23T21:34:35.544Z,8.00
2019-02-23T21:37:01.950Z,8.43
2019-02-23T21:39:28.226Z,8.60
2019-02-23T21:41:54.521Z,8.47
2019-02-23T21:44:20.932Z,8.30
2019-02-23T21:46:47.266Z,8.07
2019-02-23T21:49:13.594Z,8.40
2019-02-23T21:51:39.924Z,9.37
2019-02-23T21:54:10.147Z,9.47
2019-02-23T21:56:34.564Z,8.70
2019-02-23T21:59:01.084Z,8.53
2019-02-23T22:01:27.401Z,8.67
2019-02-23T22:03:53.689Z,8.77
2019-02-23T22:06:19.966Z,8.03
2019-02-23T22:08:46.247Z,8.43
2019-02-23T22:11:12.553Z,8.83
2019-02-23T22:13:38.832Z,8.63
2019-02-23T22:16:05.159Z,8.60
2019-02-23T22:18:31.431Z,8.43
2019-02-23T22:20:57.846Z,8.57
2019-02-23T22:23:24.173Z,8.40
2019-02-23T22:25:50.497Z,8.20
2019-02-23T22:28:16.734Z,8.37
2019-02-23T22:30:43.069Z,8.17
2019-02-23T22:33:09.361Z,8.50
2019-02-23T22:35:36.136Z,9.57
2019-02-23T22:38:02.442Z,8.47
2019-02-23T22:40:28.730Z,8.80
2019-02-23T22:42:55.030Z,9.20
2019-02-23T22:45:21.609Z,8.93
2019-02-23T22:47:47.903Z,9.20
2019-02-23T22:50:14.310Z,9.60
2019-02-23T22:52:40.537Z,8.40
2019-02-23T22:55:06.970Z,10.03
2019-02-23T22:57:40.205Z,9.63
2019-02-23T23:00:01.315Z,9.27
2019-02-23T23:02:27.803Z,8.60
2019-02-23T23:04:54.117Z,8.53
2019-02-23T23:07:20.462Z,8.97
2019-02-23T23:09:46.776Z,8.47
2019-02-23T23:12:13.125Z,8.67
2019-02-23T23:14:39.556Z,8.13
2019-02-23T23:17:05.886Z,8.83
2019-02-23T23:19:32.183Z,8.90
2019-02-23T23:21:58.548Z,9.33
2019-02-23T23:24:24.877Z,9.80
2019-02-23T23:26:51.105Z,10.33
2019-02-23T23:29:17.378Z,9.87
2019-02-23T23:31:43.773Z,10.73
2019-02-23T23:34:10.073Z,10.20
2019-02-23T23:36:36.358Z,9.40
2019-02-23T23:39:04.190Z,10.03
2019-02-23T23:41:31.442Z,9.70
2019-02-23T23:43:59.388Z,10.10
2019-02-23T23:46:25.945Z,10.23
2019-02-23T23:48:52.276Z,10.00
2019-02-23T23:51:18.608Z,9.30
2019-02-23T23:53:44.874Z,9.10
2019-02-23T23:56:11.486Z,9.00
2019-02-23T23:58:37.801Z,9.20
